< < Back
Terminal Aerodrome Forecast


Current Version              Previous Versions:   1  2  3  4  5  6  7  8  9  

Terminal Aerodrome Forecast

989
FTUS42 KJAX 301730
TAFGNV
TAF
KGNV 301730Z 3018/3118 13006KT P6SM SCT025 BKN040
     FM302000 10007KT P6SM VCTS BKN035CB
     FM310000 09004KT P6SM VCSH SCT035 BKN100
     FM310900 VRB03KT P6SM SCT005 SCT250
     FM311400 VRB05KT P6SM SCT040=

Latest METAR

676
SAUS70 KWBC 302152
MTRGNV
METAR KGNV 302148Z 28004KT 1/4SM +TSRA FG BKN026 BKN034 OVC050 23/22
A3002 RMK AO2 LTG DSNT W-NE RAB24 TSB03 SLP163 P0024
T02280222


USA.gov is the U.S. government's official web portal to all federal, state and local government web resources and services.